sensor_id;sensor_type;location;lat;lon;timestamp;P1;durP1;ratioP1;P2;durP2;ratioP2
74100;SDS011;62462;52.530;21.682;2023-05-14T00:01:36;54.65;;;29.83;;
74100;SDS011;62462;52.530;21.682;2023-05-14T00:04:02;53.90;;;31.73;;
74100;SDS011;62462;52.530;21.682;2023-05-14T00:06:28;74.00;;;36.47;;
74100;SDS011;62462;52.530;21.682;2023-05-14T00:08:54;68.30;;;35.22;;
74100;SDS011;62462;52.530;21.682;2023-05-14T00:11:19;72.97;;;36.45;;
74100;SDS011;62462;52.530;21.682;2023-05-14T00:13:45;76.18;;;36.17;;
74100;SDS011;62462;52.530;21.682;2023-05-14T00:16:11;79.85;;;39.08;;
74100;SDS011;62462;52.530;21.682;2023-05-14T00:18:37;77.22;;;38.08;;
74100;SDS011;62462;52.530;21.682;2023-05-14T00:21:03;75.05;;;36.55;;
74100;SDS011;62462;52.530;21.682;2023-05-14T00:23:28;69.07;;;34.55;;
74100;SDS011;62462;52.530;21.682;2023-05-14T00:25:54;57.40;;;32.10;;
74100;SDS011;62462;52.530;21.682;2023-05-14T00:28:20;71.22;;;34.90;;
74100;SDS011;62462;52.530;21.682;2023-05-14T00:30:46;66.25;;;36.15;;
74100;SDS011;62462;52.530;21.682;2023-05-14T00:33:11;80.85;;;37.15;;
74100;SDS011;62462;52.530;21.682;2023-05-14T00:35:37;71.97;;;37.30;;
74100;SDS011;62462;52.530;21.682;2023-05-14T00:38:03;66.22;;;35.78;;
74100;SDS011;62462;52.530;21.682;2023-05-14T00:40:29;78.90;;;38.97;;
74100;SDS011;62462;52.530;21.682;2023-05-14T00:42:55;76.57;;;38.60;;
74100;SDS011;62462;52.530;21.682;2023-05-14T00:45:21;59.50;;;32.67;;
74100;SDS011;62462;52.530;21.682;2023-05-14T00:47:47;69.40;;;35.72;;
74100;SDS011;62462;52.530;21.682;2023-05-14T00:50:13;63.92;;;32.72;;
74100;SDS011;62462;52.530;21.682;2023-05-14T00:52:40;67.70;;;34.45;;
74100;SDS011;62462;52.530;21.682;2023-05-14T00:55:06;65.50;;;35.55;;
74100;SDS011;62462;52.530;21.682;2023-05-14T00:57:33;58.60;;;33.35;;
74100;SDS011;62462;52.530;21.682;2023-05-14T01:00:00;55.50;;;31.77;;
74100;SDS011;62462;52.530;21.682;2023-05-14T01:02:26;62.30;;;33.30;;
74100;SDS011;62462;52.530;21.682;2023-05-14T01:04:52;59.95;;;33.03;;
74100;SDS011;62462;52.530;21.682;2023-05-14T01:10:16;64.80;;;34.88;;
74100;SDS011;62462;52.530;21.682;2023-05-14T01:15:34;55.27;;;32.03;;
74100;SDS011;62462;52.530;21.682;2023-05-14T01:18:08;62.72;;;32.20;;
74100;SDS011;62462;52.530;21.682;2023-05-14T01:20:35;58.30;;;32.85;;
74100;SDS011;62462;52.530;21.682;2023-05-14T01:23:01;58.97;;;31.15;;
74100;SDS011;62462;52.530;21.682;2023-05-14T01:25:29;59.60;;;32.17;;
74100;SDS011;62462;52.530;21.682;2023-05-14T01:28:08;53.53;;;31.50;;
74100;SDS011;62462;52.530;21.682;2023-05-14T01:30:44;57.47;;;31.08;;
74100;SDS011;62462;52.530;21.682;2023-05-14T01:33:29;52.58;;;28.73;;
74100;SDS011;62462;52.530;21.682;2023-05-14T01:35:59;48.83;;;28.63;;
74100;SDS011;62462;52.530;21.682;2023-05-14T01:38:25;50.83;;;29.40;;
74100;SDS011;62462;52.530;21.682;2023-05-14T01:40:55;52.95;;;28.15;;
74100;SDS011;62462;52.530;21.682;2023-05-14T01:43:22;52.75;;;28.33;;
74100;SDS011;62462;52.530;21.682;2023-05-14T01:45:48;48.60;;;28.63;;
74100;SDS011;62462;52.530;21.682;2023-05-14T01:48:14;43.33;;;26.60;;
74100;SDS011;62462;52.530;21.682;2023-05-14T01:50:40;48.38;;;26.30;;
74100;SDS011;62462;52.530;21.682;2023-05-14T01:53:05;53.08;;;27.48;;
74100;SDS011;62462;52.530;21.682;2023-05-14T01:55:31;42.17;;;26.23;;
74100;SDS011;62462;52.530;21.682;2023-05-14T01:57:57;50.80;;;28.45;;
74100;SDS011;62462;52.530;21.682;2023-05-14T02:00:23;51.95;;;26.42;;
74100;SDS011;62462;52.530;21.682;2023-05-14T02:02:50;48.78;;;27.00;;
74100;SDS011;62462;52.530;21.682;2023-05-14T02:05:15;43.50;;;26.13;;
74100;SDS011;62462;52.530;21.682;2023-05-14T02:07:41;48.83;;;25.35;;
74100;SDS011;62462;52.530;21.682;2023-05-14T02:10:07;43.65;;;24.67;;
74100;SDS011;62462;52.530;21.682;2023-05-14T02:12:33;45.42;;;24.48;;
74100;SDS011;62462;52.530;21.682;2023-05-14T02:14:59;42.45;;;23.65;;
74100;SDS011;62462;52.530;21.682;2023-05-14T02:17:25;40.20;;;23.42;;
74100;SDS011;62462;52.530;21.682;2023-05-14T02:19:51;39.13;;;22.88;;
74100;SDS011;62462;52.530;21.682;2023-05-14T02:22:16;38.17;;;21.63;;
74100;SDS011;62462;52.530;21.682;2023-05-14T02:24:42;34.85;;;19.85;;
74100;SDS011;62462;52.530;21.682;2023-05-14T02:27:08;35.42;;;20.20;;
74100;SDS011;62462;52.530;21.682;2023-05-14T02:29:34;34.60;;;20.52;;
74100;SDS011;62462;52.530;21.682;2023-05-14T02:31:59;35.35;;;19.77;;
74100;SDS011;62462;52.530;21.682;2023-05-14T02:34:25;31.60;;;19.45;;
74100;SDS011;62462;52.530;21.682;2023-05-14T02:36:51;29.83;;;19.67;;
74100;SDS011;62462;52.530;21.682;2023-05-14T02:39:16;29.85;;;18.48;;
74100;SDS011;62462;52.530;21.682;2023-05-14T02:41:42;34.38;;;18.92;;
74100;SDS011;62462;52.530;21.682;2023-05-14T02:44:08;29.95;;;18.48;;
74100;SDS011;62462;52.530;21.682;2023-05-14T02:46:34;31.42;;;18.48;;
74100;SDS011;62462;52.530;21.682;2023-05-14T02:48:59;33.58;;;19.20;;
74100;SDS011;62462;52.530;21.682;2023-05-14T02:51:25;30.80;;;18.25;;
74100;SDS011;62462;52.530;21.682;2023-05-14T02:53:51;29.08;;;18.15;;
74100;SDS011;62462;52.530;21.682;2023-05-14T02:56:17;30.48;;;19.45;;
74100;SDS011;62462;52.530;21.682;2023-05-14T02:58:43;31.13;;;18.13;;
74100;SDS011;62462;52.530;21.682;2023-05-14T03:01:08;35.45;;;18.75;;
74100;SDS011;62462;52.530;21.682;2023-05-14T03:03:34;35.25;;;19.95;;
74100;SDS011;62462;52.530;21.682;2023-05-14T03:06:00;38.53;;;20.33;;
74100;SDS011;62462;52.530;21.682;2023-05-14T03:08:26;37.05;;;19.52;;
74100;SDS011;62462;52.530;21.682;2023-05-14T03:10:51;35.95;;;19.65;;
74100;SDS011;62462;52.530;21.682;2023-05-14T03:13:17;34.47;;;19.48;;
74100;SDS011;62462;52.530;21.682;2023-05-14T03:15:45;39.92;;;19.63;;
74100;SDS011;62462;52.530;21.682;2023-05-14T03:18:11;35.67;;;19.85;;
74100;SDS011;62462;52.530;21.682;2023-05-14T03:20:37;30.90;;;18.33;;
74100;SDS011;62462;52.530;21.682;2023-05-14T03:23:03;29.80;;;17.15;;
74100;SDS011;62462;52.530;21.682;2023-05-14T03:25:29;30.85;;;17.85;;
74100;SDS011;62462;52.530;21.682;2023-05-14T03:27:55;31.95;;;17.70;;
74100;SDS011;62462;52.530;21.682;2023-05-14T03:30:21;31.00;;;18.02;;
74100;SDS011;62462;52.530;21.682;2023-05-14T03:32:46;32.03;;;18.83;;
74100;SDS011;62462;52.530;21.682;2023-05-14T03:35:12;30.52;;;17.75;;
74100;SDS011;62462;52.530;21.682;2023-05-14T03:37:38;27.92;;;17.60;;
74100;SDS011;62462;52.530;21.682;2023-05-14T03:40:04;33.30;;;17.85;;
74100;SDS011;62462;52.530;21.682;2023-05-14T03:42:30;30.42;;;18.20;;
74100;SDS011;62462;52.530;21.682;2023-05-14T03:44:56;31.95;;;18.73;;
74100;SDS011;62462;52.530;21.682;2023-05-14T03:47:22;28.65;;;17.25;;
74100;SDS011;62462;52.530;21.682;2023-05-14T03:49:48;30.27;;;17.05;;
74100;SDS011;62462;52.530;21.682;2023-05-14T03:52:14;33.72;;;18.98;;
74100;SDS011;62462;52.530;21.682;2023-05-14T03:54:40;26.35;;;16.75;;
74100;SDS011;62462;52.530;21.682;2023-05-14T03:57:06;30.05;;;18.30;;
74100;SDS011;62462;52.530;21.682;2023-05-14T03:59:31;29.75;;;17.10;;
74100;SDS011;62462;52.530;21.682;2023-05-14T04:01:57;28.63;;;17.08;;
74100;SDS011;62462;52.530;21.682;2023-05-14T04:04:23;27.80;;;17.27;;
74100;SDS011;62462;52.530;21.682;2023-05-14T04:06:49;25.17;;;15.75;;
74100;SDS011;62462;52.530;21.682;2023-05-14T04:09:14;30.48;;;16.17;;
74100;SDS011;62462;52.530;21.682;2023-05-14T04:11:40;26.30;;;14.65;;
74100;SDS011;62462;52.530;21.682;2023-05-14T04:14:06;25.60;;;14.05;;
74100;SDS011;62462;52.530;21.682;2023-05-14T04:16:31;23.60;;;13.88;;
74100;SDS011;62462;52.530;21.682;2023-05-14T04:18:59;23.55;;;13.88;;
74100;SDS011;62462;52.530;21.682;2023-05-14T04:21:26;23.77;;;13.60;;
74100;SDS011;62462;52.530;21.682;2023-05-14T04:23:52;19.45;;;12.30;;
74100;SDS011;62462;52.530;21.682;2023-05-14T04:26:18;18.90;;;11.90;;
74100;SDS011;62462;52.530;21.682;2023-05-14T04:28:43;18.50;;;10.77;;
74100;SDS011;62462;52.530;21.682;2023-05-14T04:31:09;18.88;;;11.15;;
74100;SDS011;62462;52.530;21.682;2023-05-14T04:33:36;17.52;;;11.45;;
74100;SDS011;62462;52.530;21.682;2023-05-14T04:36:02;25.25;;;10.93;;
74100;SDS011;62462;52.530;21.682;2023-05-14T04:38:29;18.67;;;10.82;;
74100;SDS011;62462;52.530;21.682;2023-05-14T04:40:56;17.55;;;10.68;;
74100;SDS011;62462;52.530;21.682;2023-05-14T04:43:22;17.08;;;11.18;;
74100;SDS011;62462;52.530;21.682;2023-05-14T04:45:48;18.02;;;10.95;;
74100;SDS011;62462;52.530;21.682;2023-05-14T04:48:15;15.23;;;10.00;;
74100;SDS011;62462;52.530;21.682;2023-05-14T04:50:41;15.57;;;9.73;;
74100;SDS011;62462;52.530;21.682;2023-05-14T04:53:08;13.88;;;9.40;;
74100;SDS011;62462;52.530;21.682;2023-05-14T04:55:34;15.48;;;9.88;;
74100;SDS011;62462;52.530;21.682;2023-05-14T04:58:00;16.15;;;10.00;;
74100;SDS011;62462;52.530;21.682;2023-05-14T05:00:26;15.23;;;9.60;;
74100;SDS011;62462;52.530;21.682;2023-05-14T05:02:52;17.73;;;9.52;;
74100;SDS011;62462;52.530;21.682;2023-05-14T05:05:18;16.33;;;9.32;;
74100;SDS011;62462;52.530;21.682;2023-05-14T05:07:44;13.10;;;8.80;;
74100;SDS011;62462;52.530;21.682;2023-05-14T05:10:10;12.63;;;8.80;;
74100;SDS011;62462;52.530;21.682;2023-05-14T05:12:36;13.73;;;8.93;;
74100;SDS011;62462;52.530;21.682;2023-05-14T05:15:02;12.20;;;8.57;;
74100;SDS011;62462;52.530;21.682;2023-05-14T05:17:28;13.43;;;8.48;;
74100;SDS011;62462;52.530;21.682;2023-05-14T05:19:54;12.20;;;8.25;;
74100;SDS011;62462;52.530;21.682;2023-05-14T05:22:20;11.95;;;8.45;;
74100;SDS011;62462;52.530;21.682;2023-05-14T05:24:46;11.10;;;7.20;;
74100;SDS011;62462;52.530;21.682;2023-05-14T05:27:12;10.02;;;6.93;;
74100;SDS011;62462;52.530;21.682;2023-05-14T05:29:38;9.23;;;6.68;;
74100;SDS011;62462;52.530;21.682;2023-05-14T05:32:04;10.75;;;7.75;;
74100;SDS011;62462;52.530;21.682;2023-05-14T05:34:30;9.73;;;6.80;;
74100;SDS011;62462;52.530;21.682;2023-05-14T05:36:56;9.98;;;7.13;;
74100;SDS011;62462;52.530;21.682;2023-05-14T05:39:22;9.27;;;6.65;;
74100;SDS011;62462;52.530;21.682;2023-05-14T05:41:48;9.85;;;6.07;;
74100;SDS011;62462;52.530;21.682;2023-05-14T05:44:13;8.20;;;6.07;;
74100;SDS011;62462;52.530;21.682;2023-05-14T05:46:39;7.30;;;5.60;;
74100;SDS011;62462;52.530;21.682;2023-05-14T05:49:05;10.48;;;5.63;;
74100;SDS011;62462;52.530;21.682;2023-05-14T05:51:31;8.10;;;5.68;;
74100;SDS011;62462;52.530;21.682;2023-05-14T05:53:57;7.65;;;5.63;;
74100;SDS011;62462;52.530;21.682;2023-05-14T05:56:23;9.18;;;5.25;;
74100;SDS011;62462;52.530;21.682;2023-05-14T05:58:48;5.22;;;4.28;;
74100;SDS011;62462;52.530;21.682;2023-05-14T06:01:14;6.70;;;4.70;;
74100;SDS011;62462;52.530;21.682;2023-05-14T06:03:40;6.10;;;4.72;;
74100;SDS011;62462;52.530;21.682;2023-05-14T06:06:06;7.43;;;4.68;;
74100;SDS011;62462;52.530;21.682;2023-05-14T06:08:31;5.20;;;4.40;;
74100;SDS011;62462;52.530;21.682;2023-05-14T06:10:57;7.97;;;4.30;;
74100;SDS011;62462;52.530;21.682;2023-05-14T06:13:23;9.73;;;5.45;;
74100;SDS011;62462;52.530;21.682;2023-05-14T06:15:49;9.70;;;4.53;;
74100;SDS011;62462;52.530;21.682;2023-05-14T06:18:15;7.28;;;4.93;;
74100;SDS011;62462;52.530;21.682;2023-05-14T06:20:40;6.70;;;4.80;;
74100;SDS011;62462;52.530;21.682;2023-05-14T06:23:06;5.95;;;4.70;;
74100;SDS011;62462;52.530;21.682;2023-05-14T06:25:32;7.80;;;4.90;;
74100;SDS011;62462;52.530;21.682;2023-05-14T06:27:58;8.93;;;4.50;;
74100;SDS011;62462;52.530;21.682;2023-05-14T06:30:24;7.35;;;4.30;;
74100;SDS011;62462;52.530;21.682;2023-05-14T06:32:50;5.10;;;4.03;;
74100;SDS011;62462;52.530;21.682;2023-05-14T06:35:16;8.05;;;4.30;;
74100;SDS011;62462;52.530;21.682;2023-05-14T06:37:43;6.82;;;3.85;;
74100;SDS011;62462;52.530;21.682;2023-05-14T06:40:09;4.90;;;4.10;;
74100;SDS011;62462;52.530;21.682;2023-05-14T06:42:36;7.18;;;3.50;;
74100;SDS011;62462;52.530;21.682;2023-05-14T06:45:02;4.75;;;3.20;;
74100;SDS011;62462;52.530;21.682;2023-05-14T06:47:28;6.28;;;3.70;;
74100;SDS011;62462;52.530;21.682;2023-05-14T06:49:54;5.45;;;3.50;;
74100;SDS011;62462;52.530;21.682;2023-05-14T06:52:20;5.43;;;3.30;;
74100;SDS011;62462;52.530;21.682;2023-05-14T06:54:46;5.03;;;3.38;;
74100;SDS011;62462;52.530;21.682;2023-05-14T06:57:11;3.65;;;2.97;;
74100;SDS011;62462;52.530;21.682;2023-05-14T06:59:37;5.72;;;3.05;;
74100;SDS011;62462;52.530;21.682;2023-05-14T07:02:03;6.15;;;3.17;;
74100;SDS011;62462;52.530;21.682;2023-05-14T07:04:29;5.85;;;2.85;;
74100;SDS011;62462;52.530;21.682;2023-05-14T07:06:54;3.15;;;2.58;;
74100;SDS011;62462;52.530;21.682;2023-05-14T07:09:20;4.57;;;3.20;;
74100;SDS011;62462;52.530;21.682;2023-05-14T07:11:46;6.22;;;3.20;;
74100;SDS011;62462;52.530;21.682;2023-05-14T07:14:12;5.35;;;3.78;;
74100;SDS011;62462;52.530;21.682;2023-05-14T07:16:37;4.57;;;3.47;;
74100;SDS011;62462;52.530;21.682;2023-05-14T07:19:04;6.15;;;3.60;;
74100;SDS011;62462;52.530;21.682;2023-05-14T07:21:29;5.57;;;3.50;;
74100;SDS011;62462;52.530;21.682;2023-05-14T07:23:56;6.53;;;3.63;;
74100;SDS011;62462;52.530;21.682;2023-05-14T07:26:22;6.43;;;3.70;;
74100;SDS011;62462;52.530;21.682;2023-05-14T07:28:48;5.07;;;3.30;;
74100;SDS011;62462;52.530;21.682;2023-05-14T07:31:14;10.25;;;3.75;;
74100;SDS011;62462;52.530;21.682;2023-05-14T07:33:39;5.38;;;3.50;;
74100;SDS011;62462;52.530;21.682;2023-05-14T07:36:05;5.28;;;3.45;;
74100;SDS011;62462;52.530;21.682;2023-05-14T07:38:31;4.50;;;3.30;;
74100;SDS011;62462;52.530;21.682;2023-05-14T07:40:57;4.57;;;3.05;;
74100;SDS011;62462;52.530;21.682;2023-05-14T07:43:23;8.40;;;4.15;;
74100;SDS011;62462;52.530;21.682;2023-05-14T07:45:49;6.75;;;3.70;;
74100;SDS011;62462;52.530;21.682;2023-05-14T07:48:15;7.53;;;3.25;;
74100;SDS011;62462;52.530;21.682;2023-05-14T07:50:41;6.07;;;3.97;;
74100;SDS011;62462;52.530;21.682;2023-05-14T07:53:06;5.05;;;3.45;;
74100;SDS011;62462;52.530;21.682;2023-05-14T07:55:32;5.80;;;3.17;;
74100;SDS011;62462;52.530;21.682;2023-05-14T07:57:58;6.68;;;3.45;;
74100;SDS011;62462;52.530;21.682;2023-05-14T08:00:24;8.93;;;3.67;;
74100;SDS011;62462;52.530;21.682;2023-05-14T08:02:49;8.48;;;4.15;;
74100;SDS011;62462;52.530;21.682;2023-05-14T08:05:16;4.68;;;2.92;;
74100;SDS011;62462;52.530;21.682;2023-05-14T08:07:42;5.75;;;3.08;;
74100;SDS011;62462;52.530;21.682;2023-05-14T08:10:08;5.53;;;2.72;;
74100;SDS011;62462;52.530;21.682;2023-05-14T08:12:34;6.35;;;2.75;;
74100;SDS011;62462;52.530;21.682;2023-05-14T08:15:00;6.97;;;2.80;;
74100;SDS011;62462;52.530;21.682;2023-05-14T08:17:26;5.75;;;2.75;;
74100;SDS011;62462;52.530;21.682;2023-05-14T08:19:51;5.13;;;2.70;;
74100;SDS011;62462;52.530;21.682;2023-05-14T08:22:17;4.38;;;2.60;;
74100;SDS011;62462;52.530;21.682;2023-05-14T08:24:43;3.72;;;2.22;;
74100;SDS011;62462;52.530;21.682;2023-05-14T08:27:09;5.53;;;2.45;;
74100;SDS011;62462;52.530;21.682;2023-05-14T08:29:35;4.30;;;2.60;;
74100;SDS011;62462;52.530;21.682;2023-05-14T08:32:01;4.55;;;2.50;;
74100;SDS011;62462;52.530;21.682;2023-05-14T08:34:27;2.70;;;2.17;;
74100;SDS011;62462;52.530;21.682;2023-05-14T08:36:52;3.25;;;2.22;;
74100;SDS011;62462;52.530;21.682;2023-05-14T08:39:18;3.75;;;2.03;;
74100;SDS011;62462;52.530;21.682;2023-05-14T08:41:44;4.95;;;2.22;;
74100;SDS011;62462;52.530;21.682;2023-05-14T08:44:14;4.30;;;2.20;;
74100;SDS011;62462;52.530;21.682;2023-05-14T08:46:43;10.23;;;2.30;;
74100;SDS011;62462;52.530;21.682;2023-05-14T08:49:14;6.75;;;1.95;;
74100;SDS011;62462;52.530;21.682;2023-05-14T08:51:58;3.95;;;1.88;;
74100;SDS011;62462;52.530;21.682;2023-05-14T08:54:24;3.53;;;2.15;;
74100;SDS011;62462;52.530;21.682;2023-05-14T08:56:52;5.45;;;2.20;;
74100;SDS011;62462;52.530;21.682;2023-05-14T08:59:18;4.13;;;2.00;;
74100;SDS011;62462;52.530;21.682;2023-05-14T09:01:47;4.13;;;2.45;;
74100;SDS011;62462;52.530;21.682;2023-05-14T09:04:18;6.07;;;1.98;;
74100;SDS011;62462;52.530;21.682;2023-05-14T09:06:50;3.17;;;2.10;;
74100;SDS011;62462;52.530;21.682;2023-05-14T09:09:17;6.25;;;2.33;;
74100;SDS011;62462;52.530;21.682;2023-05-14T09:11:47;3.50;;;2.13;;
74100;SDS011;62462;52.530;21.682;2023-05-14T09:14:14;2.15;;;1.92;;
74100;SDS011;62462;52.530;21.682;2023-05-14T09:16:40;4.43;;;1.95;;
74100;SDS011;62462;52.530;21.682;2023-05-14T09:19:11;6.05;;;2.08;;
74100;SDS011;62462;52.530;21.682;2023-05-14T09:21:38;5.07;;;2.10;;
74100;SDS011;62462;52.530;21.682;2023-05-14T09:24:04;3.55;;;2.00;;
74100;SDS011;62462;52.530;21.682;2023-05-14T09:26:31;5.82;;;1.73;;
74100;SDS011;62462;52.530;21.682;2023-05-14T09:28:59;3.50;;;1.98;;
74100;SDS011;62462;52.530;21.682;2023-05-14T09:31:28;3.47;;;1.85;;
74100;SDS011;62462;52.530;21.682;2023-05-14T09:33:55;5.43;;;1.92;;
74100;SDS011;62462;52.530;21.682;2023-05-14T09:36:21;5.30;;;1.77;;
74100;SDS011;62462;52.530;21.682;2023-05-14T09:38:49;3.35;;;1.73;;
74100;SDS011;62462;52.530;21.682;2023-05-14T09:41:15;3.20;;;2.05;;
74100;SDS011;62462;52.530;21.682;2023-05-14T09:43:41;5.35;;;1.60;;
74100;SDS011;62462;52.530;21.682;2023-05-14T09:46:07;6.20;;;1.67;;
74100;SDS011;62462;52.530;21.682;2023-05-14T09:48:32;4.57;;;1.83;;
74100;SDS011;62462;52.530;21.682;2023-05-14T09:50:59;6.18;;;1.77;;
74100;SDS011;62462;52.530;21.682;2023-05-14T09:53:25;1.65;;;1.50;;
74100;SDS011;62462;52.530;21.682;2023-05-14T09:55:51;3.08;;;1.50;;
74100;SDS011;62462;52.530;21.682;2023-05-14T09:58:17;4.80;;;1.70;;
74100;SDS011;62462;52.530;21.682;2023-05-14T10:00:43;4.22;;;1.60;;
74100;SDS011;62462;52.530;21.682;2023-05-14T10:03:12;3.45;;;1.55;;
74100;SDS011;62462;52.530;21.682;2023-05-14T10:05:39;2.50;;;1.83;;
74100;SDS011;62462;52.530;21.682;2023-05-14T10:08:27;3.38;;;1.75;;
74100;SDS011;62462;52.530;21.682;2023-05-14T10:10:54;4.18;;;1.52;;
74100;SDS011;62462;52.530;21.682;2023-05-14T10:13:26;5.97;;;2.00;;
74100;SDS011;62462;52.530;21.682;2023-05-14T10:16:09;4.40;;;1.67;;
74100;SDS011;62462;52.530;21.682;2023-05-14T10:18:41;3.00;;;1.40;;
74100;SDS011;62462;52.530;21.682;2023-05-14T10:21:10;5.10;;;1.92;;
74100;SDS011;62462;52.530;21.682;2023-05-14T10:23:39;1.73;;;1.40;;
74100;SDS011;62462;52.530;21.682;2023-05-14T10:26:16;3.72;;;1.67;;
74100;SDS011;62462;52.530;21.682;2023-05-14T10:28:42;4.22;;;1.60;;
74100;SDS011;62462;52.530;21.682;2023-05-14T10:31:09;4.35;;;1.55;;
74100;SDS011;62462;52.530;21.682;2023-05-14T10:33:47;2.97;;;1.60;;
74100;SDS011;62462;52.530;21.682;2023-05-14T10:36:15;5.47;;;1.38;;
74100;SDS011;62462;52.530;21.682;2023-05-14T10:38:42;4.53;;;1.50;;
74100;SDS011;62462;52.530;21.682;2023-05-14T10:41:12;4.82;;;1.63;;
74100;SDS011;62462;52.530;21.682;2023-05-14T10:43:42;2.88;;;1.80;;
74100;SDS011;62462;52.530;21.682;2023-05-14T10:46:08;2.30;;;1.75;;
74100;SDS011;62462;52.530;21.682;2023-05-14T10:48:35;5.57;;;2.25;;
74100;SDS011;62462;52.530;21.682;2023-05-14T10:51:03;4.13;;;2.10;;
74100;SDS011;62462;52.530;21.682;2023-05-14T10:53:37;2.08;;;1.65;;
74100;SDS011;62462;52.530;21.682;2023-05-14T10:56:11;3.25;;;1.52;;
74100;SDS011;62462;52.530;21.682;2023-05-14T10:58:38;3.10;;;1.38;;
74100;SDS011;62462;52.530;21.682;2023-05-14T11:01:08;2.75;;;1.55;;
74100;SDS011;62462;52.530;21.682;2023-05-14T11:03:40;4.57;;;1.40;;
74100;SDS011;62462;52.530;21.682;2023-05-14T11:06:07;3.83;;;1.50;;
74100;SDS011;62462;52.530;21.682;2023-05-14T11:08:35;2.75;;;1.60;;
74100;SDS011;62462;52.530;21.682;2023-05-14T11:11:01;1.52;;;1.27;;
74100;SDS011;62462;52.530;21.682;2023-05-14T11:13:27;3.40;;;1.88;;
74100;SDS011;62462;52.530;21.682;2023-05-14T11:15:53;3.47;;;1.50;;
74100;SDS011;62462;52.530;21.682;2023-05-14T11:18:31;4.15;;;2.15;;
74100;SDS011;62462;52.530;21.682;2023-05-14T11:21:01;2.30;;;1.50;;
74100;SDS011;62462;52.530;21.682;2023-05-14T11:23:27;3.28;;;1.83;;
74100;SDS011;62462;52.530;21.682;2023-05-14T11:25:53;5.43;;;1.55;;
74100;SDS011;62462;52.530;21.682;2023-05-14T11:28:20;3.13;;;1.90;;
74100;SDS011;62462;52.530;21.682;2023-05-14T11:30:47;3.28;;;1.48;;
74100;SDS011;62462;52.530;21.682;2023-05-14T11:33:14;2.72;;;1.20;;
74100;SDS011;62462;52.530;21.682;2023-05-14T11:35:41;3.47;;;1.42;;
74100;SDS011;62462;52.530;21.682;2023-05-14T11:38:12;2.83;;;1.80;;
74100;SDS011;62462;52.530;21.682;2023-05-14T11:40:46;3.10;;;1.70;;
74100;SDS011;62462;52.530;21.682;2023-05-14T11:43:18;3.60;;;1.75;;
74100;SDS011;62462;52.530;21.682;2023-05-14T11:45:50;4.88;;;1.60;;
74100;SDS011;62462;52.530;21.682;2023-05-14T11:48:17;2.53;;;1.70;;
74100;SDS011;62462;52.530;21.682;2023-05-14T11:50:47;3.75;;;1.50;;
74100;SDS011;62462;52.530;21.682;2023-05-14T11:53:17;14.35;;;1.77;;
74100;SDS011;62462;52.530;21.682;2023-05-14T11:55:45;5.72;;;1.55;;
74100;SDS011;62462;52.530;21.682;2023-05-14T11:58:11;4.75;;;1.63;;
74100;SDS011;62462;52.530;21.682;2023-05-14T12:00:37;3.33;;;1.70;;
74100;SDS011;62462;52.530;21.682;2023-05-14T12:03:05;5.00;;;1.65;;
74100;SDS011;62462;52.530;21.682;2023-05-14T12:05:30;2.95;;;1.50;;
74100;SDS011;62462;52.530;21.682;2023-05-14T12:07:56;5.35;;;3.13;;
74100;SDS011;62462;52.530;21.682;2023-05-14T12:10:22;4.40;;;1.90;;
74100;SDS011;62462;52.530;21.682;2023-05-14T12:12:48;4.57;;;2.00;;
74100;SDS011;62462;52.530;21.682;2023-05-14T12:15:14;7.35;;;4.82;;
74100;SDS011;62462;52.530;21.682;2023-05-14T12:17:41;5.38;;;3.00;;
74100;SDS011;62462;52.530;21.682;2023-05-14T12:20:07;15.85;;;11.10;;
74100;SDS011;62462;52.530;21.682;2023-05-14T12:22:35;7.15;;;4.82;;
74100;SDS011;62462;52.530;21.682;2023-05-14T12:25:00;6.50;;;2.22;;
74100;SDS011;62462;52.530;21.682;2023-05-14T12:27:27;2.60;;;1.70;;
74100;SDS011;62462;52.530;21.682;2023-05-14T12:30:04;7.07;;;5.10;;
74100;SDS011;62462;52.530;21.682;2023-05-14T12:32:34;9.63;;;5.03;;
74100;SDS011;62462;52.530;21.682;2023-05-14T12:35:01;5.82;;;3.38;;
74100;SDS011;62462;52.530;21.682;2023-05-14T12:37:27;8.30;;;5.38;;
74100;SDS011;62462;52.530;21.682;2023-05-14T12:39:53;4.72;;;2.85;;
74100;SDS011;62462;52.530;21.682;2023-05-14T12:42:19;5.88;;;3.10;;
74100;SDS011;62462;52.530;21.682;2023-05-14T12:44:45;7.93;;;4.95;;
74100;SDS011;62462;52.530;21.682;2023-05-14T12:47:10;5.88;;;2.78;;
74100;SDS011;62462;52.530;21.682;2023-05-14T12:49:36;4.78;;;3.00;;
74100;SDS011;62462;52.530;21.682;2023-05-14T12:52:02;4.88;;;3.08;;
74100;SDS011;62462;52.530;21.682;2023-05-14T12:54:28;3.25;;;2.47;;
74100;SDS011;62462;52.530;21.682;2023-05-14T12:56:56;5.20;;;3.85;;
74100;SDS011;62462;52.530;21.682;2023-05-14T12:59:22;8.32;;;4.38;;
74100;SDS011;62462;52.530;21.682;2023-05-14T13:01:47;3.80;;;2.38;;
74100;SDS011;62462;52.530;21.682;2023-05-14T13:04:13;4.07;;;2.95;;
74100;SDS011;62462;52.530;21.682;2023-05-14T13:06:39;4.72;;;1.60;;
74100;SDS011;62462;52.530;21.682;2023-05-14T13:09:06;5.03;;;2.90;;
74100;SDS011;62462;52.530;21.682;2023-05-14T13:11:32;4.75;;;2.03;;
74100;SDS011;62462;52.530;21.682;2023-05-14T13:13:59;3.35;;;1.60;;
74100;SDS011;62462;52.530;21.682;2023-05-14T13:16:27;2.33;;;1.30;;
74100;SDS011;62462;52.530;21.682;2023-05-14T13:18:53;2.45;;;1.45;;
74100;SDS011;62462;52.530;21.682;2023-05-14T13:21:19;3.28;;;1.60;;
74100;SDS011;62462;52.530;21.682;2023-05-14T13:23:45;4.22;;;2.67;;
74100;SDS011;62462;52.530;21.682;2023-05-14T13:26:14;3.67;;;2.00;;
74100;SDS011;62462;52.530;21.682;2023-05-14T13:28:40;6.45;;;2.83;;
74100;SDS011;62462;52.530;21.682;2023-05-14T13:31:07;3.67;;;2.47;;
74100;SDS011;62462;52.530;21.682;2023-05-14T13:33:38;4.95;;;1.45;;
74100;SDS011;62462;52.530;21.682;2023-05-14T13:36:06;4.90;;;2.80;;
74100;SDS011;62462;52.530;21.682;2023-05-14T13:38:32;6.25;;;2.47;;
74100;SDS011;62462;52.530;21.682;2023-05-14T13:40:58;3.25;;;2.00;;
74100;SDS011;62462;52.530;21.682;2023-05-14T13:43:34;5.20;;;2.70;;
74100;SDS011;62462;52.530;21.682;2023-05-14T13:46:00;6.00;;;2.60;;
74100;SDS011;62462;52.530;21.682;2023-05-14T13:48:27;3.13;;;1.50;;
74100;SDS011;62462;52.530;21.682;2023-05-14T13:50:53;2.95;;;2.40;;
74100;SDS011;62462;52.530;21.682;2023-05-14T13:53:19;4.97;;;2.20;;
74100;SDS011;62462;52.530;21.682;2023-05-14T13:55:47;5.47;;;2.72;;
74100;SDS011;62462;52.530;21.682;2023-05-14T13:58:13;3.97;;;1.73;;
74100;SDS011;62462;52.530;21.682;2023-05-14T14:00:39;5.00;;;1.95;;
74100;SDS011;62462;52.530;21.682;2023-05-14T14:03:05;6.82;;;2.40;;
74100;SDS011;62462;52.530;21.682;2023-05-14T14:05:35;8.23;;;4.10;;
74100;SDS011;62462;52.530;21.682;2023-05-14T14:08:01;4.15;;;2.53;;
74100;SDS011;62462;52.530;21.682;2023-05-14T14:10:27;6.13;;;4.18;;
74100;SDS011;62462;52.530;21.682;2023-05-14T14:12:53;3.53;;;2.72;;
74100;SDS011;62462;52.530;21.682;2023-05-14T14:15:19;4.35;;;2.80;;
74100;SDS011;62462;52.530;21.682;2023-05-14T14:17:45;3.17;;;1.77;;
74100;SDS011;62462;52.530;21.682;2023-05-14T14:20:11;2.80;;;1.50;;
74100;SDS011;62462;52.530;21.682;2023-05-14T14:22:37;3.80;;;1.80;;
74100;SDS011;62462;52.530;21.682;2023-05-14T14:25:03;3.28;;;1.73;;
74100;SDS011;62462;52.530;21.682;2023-05-14T14:27:29;4.50;;;1.70;;
74100;SDS011;62462;52.530;21.682;2023-05-14T14:29:56;3.15;;;1.70;;